sensor_id;sensor_type;location;lat;lon;timestamp;P1;durP1;ratioP1;P2;durP2;ratioP2
11447;SDS011;43755;49.736;8.734;2022-07-03T00:00:04;1.95;;;1.30;;
11447;SDS011;43755;49.736;8.734;2022-07-03T00:02:06;1.33;;;1.17;;
11447;SDS011;43755;49.736;8.734;2022-07-03T00:04:07;1.00;;;1.00;;
11447;SDS011;43755;49.736;8.734;2022-07-03T00:06:09;0.90;;;0.90;;
11447;SDS011;43755;49.736;8.734;2022-07-03T00:08:10;1.38;;;1.25;;
11447;SDS011;43755;49.736;8.734;2022-07-03T00:10:12;1.10;;;1.10;;
11447;SDS011;43755;49.736;8.734;2022-07-03T00:12:13;1.25;;;1.25;;
11447;SDS011;43755;49.736;8.734;2022-07-03T00:14:15;0.90;;;0.90;;
11447;SDS011;43755;49.736;8.734;2022-07-03T00:16:17;1.23;;;1.10;;
11447;SDS011;43755;49.736;8.734;2022-07-03T00:18:19;0.90;;;0.90;;
11447;SDS011;43755;49.736;8.734;2022-07-03T00:20:21;2.83;;;1.05;;
11447;SDS011;43755;49.736;8.734;2022-07-03T00:22:24;0.90;;;0.90;;
11447;SDS011;43755;49.736;8.734;2022-07-03T00:24:28;1.60;;;1.08;;
11447;SDS011;43755;49.736;8.734;2022-07-03T00:26:34;1.30;;;1.30;;
11447;SDS011;43755;49.736;8.734;2022-07-03T00:28:39;1.10;;;1.08;;
11447;SDS011;43755;49.736;8.734;2022-07-03T00:30:41;1.30;;;1.23;;
11447;SDS011;43755;49.736;8.734;2022-07-03T00:32:48;1.05;;;1.05;;
11447;SDS011;43755;49.736;8.734;2022-07-03T00:34:51;1.23;;;1.17;;
11447;SDS011;43755;49.736;8.734;2022-07-03T00:36:55;2.53;;;1.25;;
11447;SDS011;43755;49.736;8.734;2022-07-03T00:38:58;1.30;;;0.90;;
11447;SDS011;43755;49.736;8.734;2022-07-03T00:41:00;0.90;;;0.90;;
11447;SDS011;43755;49.736;8.734;2022-07-03T00:43:03;0.90;;;0.90;;
11447;SDS011;43755;49.736;8.734;2022-07-03T00:45:06;1.40;;;1.30;;
11447;SDS011;43755;49.736;8.734;2022-07-03T00:47:09;2.00;;;1.90;;
11447;SDS011;43755;49.736;8.734;2022-07-03T00:49:13;3.60;;;1.88;;
11447;SDS011;43755;49.736;8.734;2022-07-03T00:51:21;1.77;;;1.40;;
11447;SDS011;43755;49.736;8.734;2022-07-03T00:53:26;4.68;;;1.75;;
11447;SDS011;43755;49.736;8.734;2022-07-03T00:55:29;2.55;;;2.10;;
11447;SDS011;43755;49.736;8.734;2022-07-03T00:57:31;2.20;;;1.80;;
11447;SDS011;43755;49.736;8.734;2022-07-03T00:59:32;4.10;;;1.85;;
11447;SDS011;43755;49.736;8.734;2022-07-03T01:01:35;7.45;;;4.57;;
11447;SDS011;43755;49.736;8.734;2022-07-03T01:03:40;11.85;;;6.38;;
11447;SDS011;43755;49.736;8.734;2022-07-03T01:05:49;7.55;;;4.68;;
11447;SDS011;43755;49.736;8.734;2022-07-03T01:07:55;5.05;;;3.28;;
11447;SDS011;43755;49.736;8.734;2022-07-03T01:10:04;2.47;;;1.90;;
11447;SDS011;43755;49.736;8.734;2022-07-03T01:12:13;2.50;;;2.03;;
11447;SDS011;43755;49.736;8.734;2022-07-03T01:14:24;1.80;;;1.70;;
11447;SDS011;43755;49.736;8.734;2022-07-03T01:16:34;1.70;;;1.60;;
11447;SDS011;43755;49.736;8.734;2022-07-03T01:18:40;1.67;;;1.58;;
11447;SDS011;43755;49.736;8.734;2022-07-03T01:20:50;1.20;;;1.10;;
11447;SDS011;43755;49.736;8.734;2022-07-03T01:22:54;1.75;;;1.00;;
11447;SDS011;43755;49.736;8.734;2022-07-03T01:25:12;2.22;;;1.70;;
11447;SDS011;43755;49.736;8.734;2022-07-03T01:27:18;4.57;;;1.90;;
11447;SDS011;43755;49.736;8.734;2022-07-03T01:29:29;2.20;;;2.00;;
11447;SDS011;43755;49.736;8.734;2022-07-03T01:31:46;2.00;;;1.80;;
11447;SDS011;43755;49.736;8.734;2022-07-03T01:33:50;2.38;;;1.63;;
11447;SDS011;43755;49.736;8.734;2022-07-03T01:35:57;1.77;;;1.58;;
11447;SDS011;43755;49.736;8.734;2022-07-03T01:38:06;2.17;;;1.60;;
11447;SDS011;43755;49.736;8.734;2022-07-03T01:40:10;1.20;;;1.20;;
11447;SDS011;43755;49.736;8.734;2022-07-03T01:42:12;2.60;;;1.42;;
11447;SDS011;43755;49.736;8.734;2022-07-03T01:44:16;1.20;;;1.10;;
11447;SDS011;43755;49.736;8.734;2022-07-03T01:46:20;0.95;;;0.93;;
11447;SDS011;43755;49.736;8.734;2022-07-03T01:48:29;1.53;;;1.10;;
11447;SDS011;43755;49.736;8.734;2022-07-03T01:50:31;0.80;;;0.80;;
11447;SDS011;43755;49.736;8.734;2022-07-03T01:52:33;1.43;;;0.93;;
11447;SDS011;43755;49.736;8.734;2022-07-03T01:54:38;1.17;;;1.08;;
11447;SDS011;43755;49.736;8.734;2022-07-03T01:56:42;1.67;;;0.83;;
11447;SDS011;43755;49.736;8.734;2022-07-03T01:58:45;2.03;;;0.80;;
11447;SDS011;43755;49.736;8.734;2022-07-03T02:00:50;1.02;;;0.90;;
11447;SDS011;43755;49.736;8.734;2022-07-03T02:02:59;0.90;;;0.90;;
11447;SDS011;43755;49.736;8.734;2022-07-03T02:05:03;0.60;;;0.60;;
11447;SDS011;43755;49.736;8.734;2022-07-03T02:07:11;1.13;;;1.07;;
11447;SDS011;43755;49.736;8.734;2022-07-03T02:09:17;1.05;;;0.90;;
11447;SDS011;43755;49.736;8.734;2022-07-03T02:11:24;0.90;;;0.90;;
11447;SDS011;43755;49.736;8.734;2022-07-03T02:13:35;6.70;;;1.20;;
11447;SDS011;43755;49.736;8.734;2022-07-03T02:15:41;1.10;;;1.00;;
11447;SDS011;43755;49.736;8.734;2022-07-03T02:17:46;0.93;;;0.93;;
11447;SDS011;43755;49.736;8.734;2022-07-03T02:19:51;3.03;;;0.93;;
11447;SDS011;43755;49.736;8.734;2022-07-03T02:21:54;1.10;;;1.00;;
11447;SDS011;43755;49.736;8.734;2022-07-03T02:24:03;0.80;;;0.80;;
11447;SDS011;43755;49.736;8.734;2022-07-03T02:26:16;1.20;;;1.15;;
11447;SDS011;43755;49.736;8.734;2022-07-03T02:28:21;1.20;;;1.10;;
11447;SDS011;43755;49.736;8.734;2022-07-03T02:30:30;1.40;;;1.30;;
11447;SDS011;43755;49.736;8.734;2022-07-03T02:32:35;1.95;;;1.20;;
11447;SDS011;43755;49.736;8.734;2022-07-03T02:34:42;1.67;;;0.90;;
11447;SDS011;43755;49.736;8.734;2022-07-03T02:36:55;1.88;;;1.08;;
11447;SDS011;43755;49.736;8.734;2022-07-03T02:39:00;1.25;;;1.15;;
11447;SDS011;43755;49.736;8.734;2022-07-03T02:41:03;2.92;;;1.13;;
11447;SDS011;43755;49.736;8.734;2022-07-03T02:43:13;1.77;;;1.30;;
11447;SDS011;43755;49.736;8.734;2022-07-03T02:45:18;1.20;;;1.10;;
11447;SDS011;43755;49.736;8.734;2022-07-03T02:47:25;1.40;;;1.30;;
11447;SDS011;43755;49.736;8.734;2022-07-03T02:52:02;2.05;;;1.25;;
11447;SDS011;43755;49.736;8.734;2022-07-03T02:54:14;1.23;;;1.23;;
11447;SDS011;43755;49.736;8.734;2022-07-03T02:56:19;1.25;;;1.15;;
11447;SDS011;43755;49.736;8.734;2022-07-03T02:58:45;1.30;;;1.20;;
11447;SDS011;43755;49.736;8.734;2022-07-03T03:00:59;1.10;;;1.10;;
11447;SDS011;43755;49.736;8.734;2022-07-03T03:03:08;5.35;;;1.40;;
11447;SDS011;43755;49.736;8.734;2022-07-03T03:05:13;1.40;;;1.40;;
11447;SDS011;43755;49.736;8.734;2022-07-03T03:07:17;1.30;;;1.30;;
11447;SDS011;43755;49.736;8.734;2022-07-03T03:09:24;1.20;;;1.20;;
11447;SDS011;43755;49.736;8.734;2022-07-03T03:11:29;1.50;;;1.40;;
11447;SDS011;43755;49.736;8.734;2022-07-03T03:13:39;1.42;;;1.33;;
11447;SDS011;43755;49.736;8.734;2022-07-03T03:15:53;1.48;;;1.40;;
11447;SDS011;43755;49.736;8.734;2022-07-03T03:18:00;2.00;;;1.30;;
11447;SDS011;43755;49.736;8.734;2022-07-03T03:20:05;1.42;;;1.13;;
11447;SDS011;43755;49.736;8.734;2022-07-03T03:22:20;1.50;;;1.38;;
11447;SDS011;43755;49.736;8.734;2022-07-03T03:24:28;1.33;;;1.33;;
11447;SDS011;43755;49.736;8.734;2022-07-03T03:26:32;1.20;;;1.20;;
11447;SDS011;43755;49.736;8.734;2022-07-03T03:28:33;1.30;;;1.30;;
11447;SDS011;43755;49.736;8.734;2022-07-03T03:30:35;1.48;;;1.38;;
11447;SDS011;43755;49.736;8.734;2022-07-03T03:32:37;1.35;;;1.30;;
11447;SDS011;43755;49.736;8.734;2022-07-03T03:34:40;2.20;;;1.20;;
11447;SDS011;43755;49.736;8.734;2022-07-03T03:36:42;1.20;;;1.10;;
11447;SDS011;43755;49.736;8.734;2022-07-03T03:38:46;1.50;;;1.40;;
11447;SDS011;43755;49.736;8.734;2022-07-03T03:40:48;1.60;;;1.50;;
11447;SDS011;43755;49.736;8.734;2022-07-03T03:42:51;1.95;;;1.30;;
11447;SDS011;43755;49.736;8.734;2022-07-03T03:44:52;2.17;;;1.15;;
11447;SDS011;43755;49.736;8.734;2022-07-03T03:46:54;2.25;;;1.30;;
11447;SDS011;43755;49.736;8.734;2022-07-03T03:48:56;1.20;;;1.20;;
11447;SDS011;43755;49.736;8.734;2022-07-03T03:50:58;1.88;;;1.42;;
11447;SDS011;43755;49.736;8.734;2022-07-03T03:53:00;2.08;;;1.50;;
11447;SDS011;43755;49.736;8.734;2022-07-03T03:55:04;1.52;;;1.42;;
11447;SDS011;43755;49.736;8.734;2022-07-03T03:57:16;1.55;;;1.48;;
11447;SDS011;43755;49.736;8.734;2022-07-03T03:59:18;1.38;;;1.30;;
11447;SDS011;43755;49.736;8.734;2022-07-03T04:01:20;3.53;;;1.50;;
11447;SDS011;43755;49.736;8.734;2022-07-03T04:03:22;1.30;;;1.20;;
11447;SDS011;43755;49.736;8.734;2022-07-03T04:05:23;1.30;;;1.30;;
11447;SDS011;43755;49.736;8.734;2022-07-03T04:07:25;1.38;;;1.27;;
11447;SDS011;43755;49.736;8.734;2022-07-03T04:09:26;1.30;;;1.20;;
11447;SDS011;43755;49.736;8.734;2022-07-03T04:11:29;2.17;;;1.30;;
11447;SDS011;43755;49.736;8.734;2022-07-03T04:13:30;2.22;;;1.20;;
11447;SDS011;43755;49.736;8.734;2022-07-03T04:15:32;1.67;;;1.25;;
11447;SDS011;43755;49.736;8.734;2022-07-03T04:17:33;1.73;;;1.20;;
11447;SDS011;43755;49.736;8.734;2022-07-03T04:19:35;1.25;;;1.20;;
11447;SDS011;43755;49.736;8.734;2022-07-03T04:21:36;1.00;;;1.00;;
11447;SDS011;43755;49.736;8.734;2022-07-03T04:23:38;4.95;;;1.50;;
11447;SDS011;43755;49.736;8.734;2022-07-03T04:25:39;1.48;;;1.30;;
11447;SDS011;43755;49.736;8.734;2022-07-03T04:27:42;1.35;;;1.20;;
11447;SDS011;43755;49.736;8.734;2022-07-03T04:29:44;1.20;;;1.20;;
11447;SDS011;43755;49.736;8.734;2022-07-03T04:31:45;1.27;;;1.20;;
11447;SDS011;43755;49.736;8.734;2022-07-03T04:33:47;1.52;;;1.25;;
11447;SDS011;43755;49.736;8.734;2022-07-03T04:35:48;1.50;;;1.40;;
11447;SDS011;43755;49.736;8.734;2022-07-03T04:37:49;1.60;;;1.20;;
11447;SDS011;43755;49.736;8.734;2022-07-03T04:39:51;1.27;;;1.25;;
11447;SDS011;43755;49.736;8.734;2022-07-03T04:41:52;1.55;;;1.33;;
11447;SDS011;43755;49.736;8.734;2022-07-03T04:43:55;1.30;;;1.10;;
11447;SDS011;43755;49.736;8.734;2022-07-03T04:45:56;1.90;;;1.38;;
11447;SDS011;43755;49.736;8.734;2022-07-03T04:47:58;1.45;;;1.20;;
11447;SDS011;43755;49.736;8.734;2022-07-03T04:49:59;1.20;;;1.20;;
11447;SDS011;43755;49.736;8.734;2022-07-03T04:52:01;1.27;;;1.17;;
11447;SDS011;43755;49.736;8.734;2022-07-03T04:54:02;1.40;;;1.30;;
11447;SDS011;43755;49.736;8.734;2022-07-03T04:56:04;3.00;;;1.30;;
11447;SDS011;43755;49.736;8.734;2022-07-03T04:58:05;2.15;;;1.20;;
11447;SDS011;43755;49.736;8.734;2022-07-03T05:00:09;1.80;;;1.35;;
11447;SDS011;43755;49.736;8.734;2022-07-03T05:02:10;1.20;;;1.20;;
11447;SDS011;43755;49.736;8.734;2022-07-03T05:04:12;1.00;;;1.00;;
11447;SDS011;43755;49.736;8.734;2022-07-03T05:06:13;1.17;;;1.07;;
11447;SDS011;43755;49.736;8.734;2022-07-03T05:08:15;1.17;;;1.10;;
11447;SDS011;43755;49.736;8.734;2022-07-03T05:10:16;2.30;;;0.97;;
11447;SDS011;43755;49.736;8.734;2022-07-03T05:12:18;1.20;;;1.10;;
11447;SDS011;43755;49.736;8.734;2022-07-03T05:14:19;1.13;;;0.97;;
11447;SDS011;43755;49.736;8.734;2022-07-03T05:16:22;1.63;;;1.30;;
11447;SDS011;43755;49.736;8.734;2022-07-03T05:18:23;1.07;;;0.90;;
11447;SDS011;43755;49.736;8.734;2022-07-03T05:20:25;0.83;;;0.83;;
11447;SDS011;43755;49.736;8.734;2022-07-03T05:22:28;1.00;;;1.00;;
11447;SDS011;43755;49.736;8.734;2022-07-03T05:24:29;1.60;;;1.20;;
11447;SDS011;43755;49.736;8.734;2022-07-03T05:26:31;1.80;;;1.17;;
11447;SDS011;43755;49.736;8.734;2022-07-03T05:28:32;1.37;;;1.27;;
11447;SDS011;43755;49.736;8.734;2022-07-03T05:30:33;1.20;;;1.20;;
11447;SDS011;43755;49.736;8.734;2022-07-03T05:32:36;1.47;;;1.00;;
11447;SDS011;43755;49.736;8.734;2022-07-03T05:34:38;1.87;;;1.30;;
11447;SDS011;43755;49.736;8.734;2022-07-03T05:36:39;3.73;;;1.07;;
11447;SDS011;43755;49.736;8.734;2022-07-03T05:38:41;1.27;;;1.17;;
11447;SDS011;43755;49.736;8.734;2022-07-03T05:41:00;1.83;;;1.20;;
11447;SDS011;43755;49.736;8.734;2022-07-03T05:43:01;1.20;;;1.20;;
11447;SDS011;43755;49.736;8.734;2022-07-03T05:45:03;1.50;;;1.40;;
11447;SDS011;43755;49.736;8.734;2022-07-03T05:47:05;1.40;;;1.30;;
11447;SDS011;43755;49.736;8.734;2022-07-03T05:49:08;1.33;;;1.23;;
11447;SDS011;43755;49.736;8.734;2022-07-03T05:51:10;1.20;;;1.20;;
11447;SDS011;43755;49.736;8.734;2022-07-03T05:53:11;2.53;;;1.30;;
11447;SDS011;43755;49.736;8.734;2022-07-03T05:55:12;1.90;;;1.00;;
11447;SDS011;43755;49.736;8.734;2022-07-03T05:57:14;1.00;;;1.00;;
11447;SDS011;43755;49.736;8.734;2022-07-03T05:59:16;1.33;;;1.27;;
11447;SDS011;43755;49.736;8.734;2022-07-03T06:01:17;1.27;;;1.17;;
11447;SDS011;43755;49.736;8.734;2022-07-03T06:03:18;1.27;;;1.27;;
11447;SDS011;43755;49.736;8.734;2022-07-03T06:05:21;1.00;;;1.00;;
11447;SDS011;43755;49.736;8.734;2022-07-03T06:07:23;1.10;;;1.10;;
11447;SDS011;43755;49.736;8.734;2022-07-03T06:09:24;1.23;;;1.10;;
11447;SDS011;43755;49.736;8.734;2022-07-03T06:11:25;1.30;;;1.17;;
11447;SDS011;43755;49.736;8.734;2022-07-03T06:13:27;2.77;;;1.20;;
11447;SDS011;43755;49.736;8.734;2022-07-03T06:15:28;1.00;;;1.00;;
11447;SDS011;43755;49.736;8.734;2022-07-03T06:17:30;1.10;;;1.00;;
11447;SDS011;43755;49.736;8.734;2022-07-03T06:19:31;1.13;;;1.13;;
11447;SDS011;43755;49.736;8.734;2022-07-03T06:21:34;1.20;;;1.20;;
11447;SDS011;43755;49.736;8.734;2022-07-03T06:23:35;1.17;;;1.10;;
11447;SDS011;43755;49.736;8.734;2022-07-03T06:25:37;1.67;;;1.30;;
11447;SDS011;43755;49.736;8.734;2022-07-03T06:27:38;1.80;;;1.30;;
11447;SDS011;43755;49.736;8.734;2022-07-03T06:29:40;1.10;;;1.10;;
11447;SDS011;43755;49.736;8.734;2022-07-03T06:31:41;1.10;;;1.10;;
11447;SDS011;43755;49.736;8.734;2022-07-03T06:33:43;1.80;;;1.20;;
11447;SDS011;43755;49.736;8.734;2022-07-03T06:35:44;2.17;;;1.30;;
11447;SDS011;43755;49.736;8.734;2022-07-03T06:37:47;1.00;;;1.00;;
11447;SDS011;43755;49.736;8.734;2022-07-03T06:39:48;2.33;;;1.40;;
11447;SDS011;43755;49.736;8.734;2022-07-03T06:41:50;1.27;;;1.20;;
11447;SDS011;43755;49.736;8.734;2022-07-03T06:43:51;1.50;;;1.40;;
11447;SDS011;43755;49.736;8.734;2022-07-03T06:45:52;1.50;;;1.20;;
11447;SDS011;43755;49.736;8.734;2022-07-03T06:47:54;1.50;;;1.50;;
11447;SDS011;43755;49.736;8.734;2022-07-03T06:49:55;1.27;;;1.17;;
11447;SDS011;43755;49.736;8.734;2022-07-03T06:51:57;2.33;;;1.20;;
11447;SDS011;43755;49.736;8.734;2022-07-03T06:53:59;1.53;;;1.13;;
11447;SDS011;43755;49.736;8.734;2022-07-03T06:56:01;2.07;;;1.30;;
11447;SDS011;43755;49.736;8.734;2022-07-03T06:58:02;2.53;;;1.10;;
11447;SDS011;43755;49.736;8.734;2022-07-03T07:00:04;1.17;;;1.17;;
11447;SDS011;43755;49.736;8.734;2022-07-03T07:02:07;1.47;;;1.30;;
11447;SDS011;43755;49.736;8.734;2022-07-03T07:04:08;2.07;;;1.37;;
11447;SDS011;43755;49.736;8.734;2022-07-03T07:06:10;1.87;;;1.03;;
11447;SDS011;43755;49.736;8.734;2022-07-03T07:08:11;1.50;;;1.20;;
11447;SDS011;43755;49.736;8.734;2022-07-03T07:10:14;3.00;;;1.30;;
11447;SDS011;43755;49.736;8.734;2022-07-03T07:12:16;2.30;;;1.30;;
11447;SDS011;43755;49.736;8.734;2022-07-03T07:14:17;1.60;;;1.20;;
11447;SDS011;43755;49.736;8.734;2022-07-03T07:16:19;1.63;;;1.20;;
11447;SDS011;43755;49.736;8.734;2022-07-03T07:18:20;2.83;;;1.30;;
11447;SDS011;43755;49.736;8.734;2022-07-03T07:20:22;2.00;;;1.23;;
11447;SDS011;43755;49.736;8.734;2022-07-03T07:22:23;1.70;;;1.40;;
11447;SDS011;43755;49.736;8.734;2022-07-03T07:24:25;1.37;;;1.13;;
11447;SDS011;43755;49.736;8.734;2022-07-03T07:26:28;1.30;;;1.20;;
11447;SDS011;43755;49.736;8.734;2022-07-03T07:28:29;1.00;;;1.00;;
11447;SDS011;43755;49.736;8.734;2022-07-03T07:30:33;1.10;;;1.10;;
11447;SDS011;43755;49.736;8.734;2022-07-03T07:32:34;1.20;;;1.10;;
11447;SDS011;43755;49.736;8.734;2022-07-03T07:34:36;2.43;;;1.17;;
11447;SDS011;43755;49.736;8.734;2022-07-03T07:36:37;1.00;;;1.00;;
11447;SDS011;43755;49.736;8.734;2022-07-03T07:38:39;1.10;;;1.10;;
11447;SDS011;43755;49.736;8.734;2022-07-03T07:40:40;1.40;;;1.30;;
11447;SDS011;43755;49.736;8.734;2022-07-03T07:42:43;1.50;;;1.40;;
11447;SDS011;43755;49.736;8.734;2022-07-03T07:44:44;1.67;;;1.57;;
11447;SDS011;43755;49.736;8.734;2022-07-03T07:46:46;1.10;;;1.00;;
11447;SDS011;43755;49.736;8.734;2022-07-03T07:48:47;1.47;;;1.00;;
11447;SDS011;43755;49.736;8.734;2022-07-03T07:50:49;1.43;;;1.33;;
11447;SDS011;43755;49.736;8.734;2022-07-03T07:52:50;1.37;;;1.27;;
11447;SDS011;43755;49.736;8.734;2022-07-03T07:54:52;1.30;;;1.20;;
11447;SDS011;43755;49.736;8.734;2022-07-03T07:56:53;1.20;;;1.20;;
11447;SDS011;43755;49.736;8.734;2022-07-03T07:58:56;1.70;;;1.23;;
11447;SDS011;43755;49.736;8.734;2022-07-03T08:00:57;1.23;;;1.23;;
11447;SDS011;43755;49.736;8.734;2022-07-03T08:03:16;2.90;;;1.50;;
11447;SDS011;43755;49.736;8.734;2022-07-03T08:05:35;1.50;;;1.30;;
11447;SDS011;43755;49.736;8.734;2022-07-03T08:07:37;2.57;;;1.30;;
11447;SDS011;43755;49.736;8.734;2022-07-03T08:09:38;2.20;;;1.20;;
11447;SDS011;43755;49.736;8.734;2022-07-03T08:11:39;1.30;;;1.20;;
11447;SDS011;43755;49.736;8.734;2022-07-03T08:13:41;2.20;;;1.20;;
11447;SDS011;43755;49.736;8.734;2022-07-03T08:15:44;2.77;;;1.20;;
11447;SDS011;43755;49.736;8.734;2022-07-03T08:17:47;1.40;;;1.30;;
11447;SDS011;43755;49.736;8.734;2022-07-03T08:19:48;1.50;;;1.40;;
11447;SDS011;43755;49.736;8.734;2022-07-03T08:21:50;1.37;;;1.27;;
11447;SDS011;43755;49.736;8.734;2022-07-03T08:23:51;1.40;;;1.30;;
11447;SDS011;43755;49.736;8.734;2022-07-03T08:25:53;1.20;;;1.20;;
11447;SDS011;43755;49.736;8.734;2022-07-03T08:27:54;1.30;;;1.20;;
11447;SDS011;43755;49.736;8.734;2022-07-03T08:29:56;1.77;;;1.30;;
11447;SDS011;43755;49.736;8.734;2022-07-03T08:31:58;1.83;;;1.40;;
11447;SDS011;43755;49.736;8.734;2022-07-03T08:34:00;1.70;;;1.20;;
11447;SDS011;43755;49.736;8.734;2022-07-03T08:36:01;2.30;;;1.40;;
11447;SDS011;43755;49.736;8.734;2022-07-03T08:38:04;1.60;;;1.50;;
11447;SDS011;43755;49.736;8.734;2022-07-03T08:40:06;1.30;;;1.20;;
11447;SDS011;43755;49.736;8.734;2022-07-03T08:42:09;2.07;;;1.30;;
11447;SDS011;43755;49.736;8.734;2022-07-03T08:44:12;1.90;;;1.40;;
11447;SDS011;43755;49.736;8.734;2022-07-03T08:46:14;1.47;;;1.37;;
11447;SDS011;43755;49.736;8.734;2022-07-03T08:48:17;1.40;;;1.30;;
11447;SDS011;43755;49.736;8.734;2022-07-03T08:50:19;1.97;;;1.23;;
11447;SDS011;43755;49.736;8.734;2022-07-03T08:54:23;1.00;;;1.00;;
11447;SDS011;43755;49.736;8.734;2022-07-03T08:56:25;1.80;;;1.20;;
11447;SDS011;43755;49.736;8.734;2022-07-03T08:58:27;1.70;;;1.10;;
11447;SDS011;43755;49.736;8.734;2022-07-03T09:00:32;0.93;;;0.93;;
11447;SDS011;43755;49.736;8.734;2022-07-03T09:02:34;1.47;;;1.30;;
11447;SDS011;43755;49.736;8.734;2022-07-03T09:04:37;1.77;;;1.17;;
11447;SDS011;43755;49.736;8.734;2022-07-03T09:06:39;1.10;;;1.10;;
11447;SDS011;43755;49.736;8.734;2022-07-03T09:08:41;1.30;;;1.20;;
11447;SDS011;43755;49.736;8.734;2022-07-03T09:10:44;1.30;;;1.20;;
11447;SDS011;43755;49.736;8.734;2022-07-03T09:12:47;1.97;;;1.40;;
11447;SDS011;43755;49.736;8.734;2022-07-03T09:14:49;2.67;;;1.13;;
11447;SDS011;43755;49.736;8.734;2022-07-03T09:16:50;1.27;;;1.17;;
11447;SDS011;43755;49.736;8.734;2022-07-03T09:18:52;1.20;;;1.20;;
11447;SDS011;43755;49.736;8.734;2022-07-03T09:21:01;2.90;;;1.37;;
11447;SDS011;43755;49.736;8.734;2022-07-03T09:23:10;1.30;;;1.20;;
11447;SDS011;43755;49.736;8.734;2022-07-03T09:25:13;1.83;;;1.20;;
11447;SDS011;43755;49.736;8.734;2022-07-03T09:27:18;1.63;;;1.40;;
11447;SDS011;43755;49.736;8.734;2022-07-03T09:29:21;1.80;;;1.70;;
11447;SDS011;43755;49.736;8.734;2022-07-03T09:31:23;1.37;;;1.27;;
11447;SDS011;43755;49.736;8.734;2022-07-03T09:33:25;1.37;;;1.27;;
11447;SDS011;43755;49.736;8.734;2022-07-03T09:35:27;2.27;;;1.30;;
11447;SDS011;43755;49.736;8.734;2022-07-03T09:37:30;1.80;;;1.30;;
11447;SDS011;43755;49.736;8.734;2022-07-03T09:39:33;3.50;;;1.40;;
11447;SDS011;43755;49.736;8.734;2022-07-03T09:41:43;1.80;;;1.63;;
11447;SDS011;43755;49.736;8.734;2022-07-03T09:43:52;1.77;;;1.40;;
11447;SDS011;43755;49.736;8.734;2022-07-03T09:45:54;2.17;;;1.30;;
11447;SDS011;43755;49.736;8.734;2022-07-03T09:47:56;1.50;;;1.40;;
11447;SDS011;43755;49.736;8.734;2022-07-03T09:49:58;1.30;;;1.20;;
11447;SDS011;43755;49.736;8.734;2022-07-03T09:52:03;1.23;;;1.23;;
11447;SDS011;43755;49.736;8.734;2022-07-03T09:54:07;1.53;;;1.27;;
11447;SDS011;43755;49.736;8.734;2022-07-03T09:56:08;1.20;;;1.20;;
11447;SDS011;43755;49.736;8.734;2022-07-03T09:58:10;1.87;;;1.40;;
11447;SDS011;43755;49.736;8.734;2022-07-03T10:00:13;1.20;;;1.20;;
11447;SDS011;43755;49.736;8.734;2022-07-03T10:02:16;1.77;;;1.60;;
11447;SDS011;43755;49.736;8.734;2022-07-03T10:04:18;1.20;;;1.10;;
11447;SDS011;43755;49.736;8.734;2022-07-03T10:06:20;1.43;;;1.30;;
11447;SDS011;43755;49.736;8.734;2022-07-03T10:08:22;3.60;;;1.30;;
11447;SDS011;43755;49.736;8.734;2022-07-03T10:10:25;2.40;;;1.30;;
11447;SDS011;43755;49.736;8.734;2022-07-03T10:12:28;1.20;;;1.13;;
11447;SDS011;43755;49.736;8.734;2022-07-03T10:14:30;1.40;;;1.30;;
11447;SDS011;43755;49.736;8.734;2022-07-03T10:16:33;1.27;;;1.10;;
11447;SDS011;43755;49.736;8.734;2022-07-03T10:18:36;1.27;;;1.23;;
11447;SDS011;43755;49.736;8.734;2022-07-03T10:20:40;1.37;;;0.90;;
11447;SDS011;43755;49.736;8.734;2022-07-03T10:22:46;8.17;;;1.47;;
11447;SDS011;43755;49.736;8.734;2022-07-03T10:24:49;2.83;;;1.20;;
11447;SDS011;43755;49.736;8.734;2022-07-03T10:26:54;1.60;;;1.50;;
11447;SDS011;43755;49.736;8.734;2022-07-03T10:28:56;1.37;;;1.07;;
11447;SDS011;43755;49.736;8.734;2022-07-03T10:30:59;2.47;;;1.13;;
11447;SDS011;43755;49.736;8.734;2022-07-03T10:33:01;1.13;;;1.00;;
11447;SDS011;43755;49.736;8.734;2022-07-03T10:35:03;1.30;;;1.07;;
11447;SDS011;43755;49.736;8.734;2022-07-03T10:37:05;2.37;;;1.30;;
11447;SDS011;43755;49.736;8.734;2022-07-03T10:39:07;1.70;;;1.27;;
11447;SDS011;43755;49.736;8.734;2022-07-03T10:41:16;3.07;;;1.00;;
11447;SDS011;43755;49.736;8.734;2022-07-03T10:43:43;2.43;;;1.10;;
11447;SDS011;43755;49.736;8.734;2022-07-03T10:46:11;2.00;;;0.90;;
11447;SDS011;43755;49.736;8.734;2022-07-03T10:48:13;1.40;;;1.10;;
11447;SDS011;43755;49.736;8.734;2022-07-03T10:50:15;1.30;;;1.10;;
11447;SDS011;43755;49.736;8.734;2022-07-03T10:52:18;1.17;;;0.90;;
11447;SDS011;43755;49.736;8.734;2022-07-03T10:54:20;1.00;;;1.00;;
11447;SDS011;43755;49.736;8.734;2022-07-03T10:56:23;2.77;;;1.00;;
11447;SDS011;43755;49.736;8.734;2022-07-03T10:58:25;2.13;;;1.07;;
11447;SDS011;43755;49.736;8.734;2022-07-03T11:00:29;1.43;;;0.93;;
11447;SDS011;43755;49.736;8.734;2022-07-03T11:02:35;1.83;;;1.07;;
11447;SDS011;43755;49.736;8.734;2022-07-03T11:07:07;3.00;;;1.30;;
11447;SDS011;43755;49.736;8.734;2022-07-03T11:09:10;2.33;;;0.90;;
11447;SDS011;43755;49.736;8.734;2022-07-03T11:11:23;2.60;;;1.03;;
11447;SDS011;43755;49.736;8.734;2022-07-03T11:16:23;6.37;;;1.10;;
11447;SDS011;43755;49.736;8.734;2022-07-03T11:18:25;1.10;;;0.80;;
11447;SDS011;43755;49.736;8.734;2022-07-03T11:20:28;2.30;;;0.80;;
11447;SDS011;43755;49.736;8.734;2022-07-03T11:22:30;1.03;;;0.93;;
11447;SDS011;43755;49.736;8.734;2022-07-03T11:24:39;1.53;;;0.97;;
11447;SDS011;43755;49.736;8.734;2022-07-03T11:26:45;0.97;;;0.70;;
11447;SDS011;43755;49.736;8.734;2022-07-03T11:28:50;2.37;;;1.03;;
11447;SDS011;43755;49.736;8.734;2022-07-03T11:33:24;0.83;;;0.80;;
11447;SDS011;43755;49.736;8.734;2022-07-03T11:35:50;1.13;;;0.80;;
11447;SDS011;43755;49.736;8.734;2022-07-03T11:37:56;0.80;;;0.80;;
11447;SDS011;43755;49.736;8.734;2022-07-03T11:39:58;4.10;;;0.80;;
11447;SDS011;43755;49.736;8.734;2022-07-03T11:42:04;0.80;;;0.80;;
11447;SDS011;43755;49.736;8.734;2022-07-03T11:44:06;1.10;;;0.97;;
11447;SDS011;43755;49.736;8.734;2022-07-03T11:46:08;2.47;;;0.97;;
11447;SDS011;43755;49.736;8.734;2022-07-03T11:48:12;1.07;;;0.90;;
11447;SDS011;43755;49.736;8.734;2022-07-03T11:50:15;1.73;;;1.10;;
11447;SDS011;43755;49.736;8.734;2022-07-03T11:52:30;0.90;;;0.90;;
11447;SDS011;43755;49.736;8.734;2022-07-03T11:56:50;0.83;;;0.83;;
11447;SDS011;43755;49.736;8.734;2022-07-03T11:58:53;1.27;;;1.17;;
11447;SDS011;43755;49.736;8.734;2022-07-03T12:00:55;1.17;;;1.07;;
11447;SDS011;43755;49.736;8.734;2022-07-03T12:02:57;1.57;;;1.10;;
11447;SDS011;43755;49.736;8.734;2022-07-03T12:04:58;0.90;;;0.90;;
11447;SDS011;43755;49.736;8.734;2022-07-03T12:07:01;1.00;;;1.00;;
11447;SDS011;43755;49.736;8.734;2022-07-03T12:09:03;1.93;;;1.57;;
11447;SDS011;43755;49.736;8.734;2022-07-03T12:11:14;1.20;;;1.03;;
11447;SDS011;43755;49.736;8.734;2022-07-03T12:13:19;3.60;;;0.90;;
11447;SDS011;43755;49.736;8.734;2022-07-03T12:15:21;1.60;;;0.90;;
11447;SDS011;43755;49.736;8.734;2022-07-03T12:17:23;0.93;;;0.80;;
11447;SDS011;43755;49.736;8.734;2022-07-03T12:19:25;3.80;;;0.83;;
11447;SDS011;43755;49.736;8.734;2022-07-03T12:21:31;1.67;;;0.83;;
11447;SDS011;43755;49.736;8.734;2022-07-03T12:23:42;1.07;;;0.80;;
11447;SDS011;43755;49.736;8.734;2022-07-03T12:25:44;2.53;;;0.80;;
11447;SDS011;43755;49.736;8.734;2022-07-03T12:27:46;2.90;;;0.73;;
11447;SDS011;43755;49.736;8.734;2022-07-03T12:29:47;2.33;;;0.83;;
11447;SDS011;43755;49.736;8.734;2022-07-03T12:31:49;2.57;;;0.70;;
11447;SDS011;43755;49.736;8.734;2022-07-03T12:33:52;0.60;;;0.60;;
11447;SDS011;43755;49.736;8.734;2022-07-03T12:36:01;1.33;;;0.93;;
11447;SDS011;43755;49.736;8.734;2022-07-03T12:38:06;0.87;;;0.77;;
11447;SDS011;43755;49.736;8.734;2022-07-03T12:40:10;0.80;;;0.80;;